Latest Weather Observations for Gold Coast Seaway

IDQ60901

Issued at 11:11 am EST Tuesday 18 June 2019 (issued every 10 minutes, with the page automatically refreshed every 10 minutes)

About weather observations | Map of Brisbane area stations | Latest observations for Brisbane area | Other Formats
Station Details ID: 040764 Name: GOLD COAST SEAWAY Lat: -27.94 Lon: 153.43 Height: 2.98 m
Data from the previous 72 hours. | See also: Recent months at Gold Coast Seaway
Date/Time
EST
Temp
°C
App
Temp
°C
Dew
Point
°C
Rel
Hum
%
Delta-T
°C
Wind Press
QNH
hPa
Press
MSL
hPa
Rain since
9am
mm
Dir  Spd
km/h
Gust
km/h
Spd
kts
Gust
kts
18/11:00am 21.4 20.8 12.3 56 5.1 SW 7 11 4 6 1017.3 1017.3 0.0
18/10:30am 20.6 19.2 11.0 54 5.3 W 9 13 5 7 1017.7 1017.7 0.0
18/10:00am 20.3 19.1 11.5 57 4.9 W 9 13 5 7 1017.9 1017.9 0.0
18/09:30am 18.7 17.6 10.5 59 4.4 SW 7 9 4 5 1018.1 1018.1 0.0
18/09:00am 17.4 16.1 10.1 62 3.9 WSW 7 11 4 6 1018.1 1018.1 0.0
18/08:30am 15.5 13.4 9.6 68 3.1 WSW 11 13 6 7 1018.2 1018.2 0.0
18/08:00am 14.1 11.4 8.9 71 2.6 W 13 15 7 8 1018.1 1018.1 0.0
18/07:30am 13.1 10.2 8.2 72 2.4 W 13 15 7 8 1017.5 1017.5 0.0
18/07:00am 12.2 9.6 7.7 74 2.2 W 11 13 6 7 1017.6 1017.6 0.0
18/06:30am 11.7 8.9 8.4 80 1.6 W 13 15 7 8 1017.3 1017.3 0.0
18/06:00am 11.4 8.5 8.3 81 1.5 W 13 15 7 8 1017.1 1017.1 0.0
18/05:30am 11.8 8.6 8.6 81 1.6 WNW 15 17 8 9 1016.6 1016.6 0.0
18/05:00am 11.4 8.7 8.8 84 1.3 WSW 13 17 7 9 1016.3 1016.3 0.0
18/04:30am 11.1 8.4 9.0 87 1.0 W 13 15 7 8 1016.2 1016.2 0.0
18/04:00am 11.6 9.2 10.0 90 0.8 WNW 13 15 7 8 1016.2 1016.2 0.0
18/03:30am 11.9 9.3 9.5 85 1.2 NW 13 15 7 8 1016.2 1016.2 0.0
18/03:00am 12.3 10.3 10.2 87 1.1 NW 11 15 6 8 1016.3 1016.3 0.0
18/02:30am 11.8 9.6 7.9 77 1.9 WNW 9 13 5 7 1016.3 1016.3 0.0
18/02:00am 12.8 10.3 8.1 73 2.3 WSW 11 13 6 7 1016.3 1016.3 0.0
18/01:30am 12.8 10.3 8.1 73 2.3 W 11 15 6 8 1016.5 1016.5 0.0
18/01:00am 12.9 10.1 8.6 75 2.1 W 13 17 7 9 1016.6 1016.6 0.0
18/12:30am 12.7 10.1 9.3 80 1.7 WSW 13 15 7 8 1016.6 1016.6 0.0
18/12:00am 12.7 10.9 9.3 80 1.7 W 9 13 5 7 1016.8 1016.8 0.0
 
Date/Time
EST
Temp
°C
App
Temp
°C
Dew
Point
°C
Rel
Hum
%
Delta-T
°C
Wind Press
QNH
hPa
Press
MSL
hPa
Rain since
9am
mm
Dir  Spd
km/h
Gust
km/h
Spd
kts
Gust
kts
17/11:30pm 12.5 10.8 9.7 83 1.4 SW 9 11 5 6 1017.0 1017.0 0.0
17/11:00pm 13.4 11.9 10.4 82 1.6 WNW 9 11 5 6 1017.1 1017.1 0.0
17/10:30pm 13.4 11.4 10.0 80 1.8 WSW 11 13 6 7 1017.2 1017.2 0.0
17/10:00pm 13.5 11.9 10.3 81 1.7 SW 9 13 5 7 1017.3 1017.3 0.0
17/09:30pm 13.8 11.5 10.6 81 1.7 SW 13 17 7 9 1017.4 1017.4 0.0
17/09:00pm 14.1 12.4 11.1 82 1.6 SW 11 13 6 7 1017.3 1017.3 0.0
17/08:30pm 14.9 13.6 11.1 78 2.0 W 9 11 5 6 1017.1 1017.1 0.0
17/08:00pm 15.2 13.4 10.8 75 2.3 WSW 11 13 6 7 1017.1 1017.1 0.0
17/07:30pm 15.2 13.8 10.8 75 2.3 SSW 9 11 5 6 1016.9 1016.9 0.0
17/07:00pm 15.8 13.8 10.1 69 3.0 SE 11 13 6 7 1016.6 1016.6 0.0
17/06:30pm 17.4 15.1 10.3 63 3.8 SSE 13 17 7 9 1016.3 1016.3 0.0
17/06:00pm 17.7 15.2 9.8 60 4.2 SE 13 15 7 8 1015.8 1015.8 0.0
17/05:30pm 18.7 16.2 12.2 66 3.6 ESE 17 20 9 11 1015.5 1015.5 0.0
17/05:00pm 18.8 15.8 12.1 65 3.7 SE 19 22 10 12 1015.3 1015.3 0.0
17/04:30pm 19.4 16.1 12.9 66 3.7 ESE 22 26 12 14 1015.2 1015.2 0.0
17/04:00pm 19.6 16.2 11.4 59 4.5 SE 20 26 11 14 1015.0 1015.0 0.0
17/03:30pm 20.3 16.9 10.7 54 5.2 SE 19 24 10 13 1014.7 1014.7 0.0
17/03:00pm 20.9 17.8 10.4 51 5.7 ESE 17 22 9 12 1014.4 1014.4 0.0
17/02:30pm 21.3 18.4 9.5 47 6.3 SE 15 17 8 9 1014.4 1014.4 0.0
17/02:00pm 21.4 18.4 10.6 50 5.9 SE 17 19 9 10 1014.4 1014.4 0.0
17/01:30pm 21.8 18.9 12.4 55 5.3 SE 19 24 10 13 1014.6 1014.6 0.0
17/01:00pm 21.7 18.5 6.8 38 7.6 WNW 13 19 7 10 1014.7 1014.7 0.0
17/12:30pm 21.6 17.2 6.7 38 7.6 W 19 26 10 14 1014.9 1014.9 0.0
17/12:00pm 21.2 16.2 8.1 43 6.8 W 24 30 13 16 1015.0 1015.0 0.0
17/11:30am 20.9 17.7 9.8 49 6.0 WNW 17 22 9 12 1015.5 1015.5 0.0
17/11:00am 20.7 16.9 9.9 50 5.8 WNW 20 32 11 17 1015.8 1015.8 0.0
17/10:30am 20.2 16.4 9.7 51 5.6 W 20 26 11 14 1016.1 1016.1 0.0
17/10:00am 19.5 15.7 11.0 58 4.6 W 22 26 12 14 1016.3 1016.3 0.0
17/09:30am 18.3 15.6 11.8 66 3.6 WNW 17 22 9 12 1016.8 1016.8 0.0
17/09:00am 18.0 15.7 12.9 72 2.9 WNW 17 20 9 11 1016.8 1016.8 3.8
17/08:30am 16.8 14.6 13.3 80 2.0 W 17 19 9 10 1016.8 1016.8 3.8
17/08:00am 16.3 14.6 13.6 84 1.5 WNW 15 17 8 9 1016.8 1016.8 3.8
17/07:30am 16.0 14.3 13.7 86 1.3 WNW 15 17 8 9 1016.4 1016.4 3.8
17/07:00am 15.8 14.4 14.5 92 0.7 W 15 19 8 10 1016.0 1016.0 3.8
17/06:30am 16.2 14.6 15.1 93 0.6 W 17 22 9 12 1015.8 1015.8 3.8
17/06:00am 16.3 14.7 16.0 98 0.2 WNW 19 24 10 13 1015.3 1015.3 3.8
17/05:30am 16.3 15.5 16.1 99 0.1 WNW 15 17 8 9 1015.2 1015.2 3.8
17/05:00am 16.6 16.3 16.4 99 0.1 WNW 13 17 7 9 1015.0 1015.0 3.8
17/04:30am 16.6 15.9 16.4 99 0.1 WNW 15 19 8 10 1015.1 1015.1 3.8
17/04:00am 16.6 16.3 16.4 99 0.1 NW 13 15 7 8 1014.8 1014.8 3.8
17/03:30am 16.7 15.7 16.5 99 0.1 WNW 17 22 9 12 1014.8 1014.8 3.6
17/03:00am 16.8 15.8 16.6 99 0.1 WNW 17 20 9 11 1015.0 1015.0 3.6
17/02:30am 17.0 16.5 16.8 99 0.1 NW 15 19 8 10 1015.1 1015.1 3.4
17/02:00am 17.1 16.6 16.9 99 0.1 NNW 15 19 8 10 1015.4 1015.4 3.2
17/01:30am 16.8 17.3 16.5 98 0.2 NNW 9 9 5 5 1015.5 1015.5 3.2
17/01:00am 16.8 16.9 16.5 98 0.2 NNW 11 11 6 6 1016.0 1016.0 3.2
17/12:30am 16.9 17.3 16.4 97 0.3 WNW 9 11 5 6 1016.0 1016.0 3.2
17/12:00am 17.2 17.4 16.7 97 0.3 NNW 11 11 6 6 1016.1 1016.1 3.2
 
Date/Time
EST
Temp
°C
App
Temp
°C
Dew
Point
°C
Rel
Hum
%
Delta-T
°C
Wind Press
QNH
hPa
Press
MSL
hPa
Rain since
9am
mm
Dir  Spd
km/h
Gust
km/h
Spd
kts
Gust
kts
16/11:30pm 17.2 17.1 16.9 98 0.2 NNW 13 15 7 8 1016.5 1016.5 3.2
16/11:00pm 17.2 17.0 16.7 97 0.3 WNW 13 17 7 9 1016.8 1016.8 3.2
16/10:30pm 17.3 16.4 16.8 97 0.3 NW 17 20 9 11 1016.9 1016.9 3.2
16/10:00pm 17.4 16.5 16.8 96 0.4 NW 17 20 9 11 1016.9 1016.9 3.2
16/09:30pm 17.5 17.4 16.9 96 0.4 NNW 13 15 7 8 1016.7 1016.7 3.2
16/09:00pm 17.6 15.6 17.3 98 0.2 WNW 24 32 13 17 1017.0 1017.0 3.0
16/08:30pm 18.1 18.0 17.9 99 0.1 WNW 15 17 8 9 1016.7 1016.7 3.0
16/08:00pm 18.3 18.7 18.1 99 0.1 NW 13 17 7 9 1016.8 1016.8 3.0
16/07:30pm 18.3 18.3 18.0 98 0.2 W 15 17 8 9 1017.0 1017.0 3.0
16/07:00pm 19.1 17.4 18.9 99 0.1 N 26 35 14 19 1016.7 1016.7 3.0
16/06:56pm 19.5 19.1 19.3 99 0.1 N 20 35 11 19 1016.6 1016.6 3.0
16/06:30pm 18.8 19.7 18.5 98 0.2 NE 11 15 6 8 1016.3 1016.3 3.0
16/06:00pm 17.9 18.8 17.6 98 0.2 SSW 9 11 5 6 1016.6 1016.6 3.0
16/05:30pm 18.1 19.6 17.6 97 0.3 SSW 6 9 3 5 1016.6 1016.6 3.0
16/05:00pm 18.4 20.0 17.9 97 0.3 NW 6 7 3 4 1016.1 1016.1 2.8
16/04:30pm 18.5 18.7 17.7 95 0.5 N 13 17 7 9 1016.4 1016.4 2.4
16/04:00pm 19.0 19.9 17.5 91 0.9 NNE 9 13 5 7 1016.4 1016.4 1.2
16/03:30pm 19.5 21.1 18.2 92 0.8 ENE 7 11 4 6 1016.1 1016.1 1.2
16/03:00pm 19.8 21.4 18.3 91 0.9 E 7 9 4 5 1016.1 1016.1 1.2
16/02:30pm 19.5 21.7 18.3 93 0.7 SW 4 7 2 4 1016.5 1016.5 1.2
16/02:00pm 19.0 20.6 18.3 96 0.4 NW 7 11 4 6 1016.5 1016.5 1.2
16/01:30pm 19.2 20.4 18.2 94 0.6 NNW 9 13 5 7 1016.9 1016.9 0.6
16/01:00pm 19.6 20.7 17.9 90 1.0 NW 9 11 5 6 1017.2 1017.2 0.0
16/12:30pm 19.2 19.4 17.7 91 0.9 WNW 13 15 7 8 1017.7 1017.7 0.0
16/12:00pm 19.1 19.8 17.1 88 1.2 NNW 9 15 5 8 1017.7 1017.7 0.0
16/11:30am 19.2 18.7 17.0 87 1.3 NW 15 20 8 11 1018.4 1018.4 0.0
16/11:00am 20.1 19.9 17.5 85 1.6 WNW 15 19 8 10 1018.8 1018.8 0.0
16/10:30am 20.7 19.4 17.3 81 2.1 WNW 20 28 11 15 1019.3 1019.3 0.0
16/10:00am 20.4 19.7 17.4 83 1.8 WNW 17 20 9 11 1019.4 1019.4 0.0
16/09:30am 19.8 21.5 18.5 92 0.8 NW 7 13 4 7 1019.6 1019.6 0.0
16/09:00am 20.0 21.5 18.8 93 0.7 NW 9 11 5 6 1019.7 1019.7 0.0
16/08:30am 18.9 19.1 18.6 98 0.2 NW 15 19 8 10 1019.5 1019.5 0.0
16/08:00am 18.5 19.7 18.3 99 0.1 WNW 9 13 5 7 1019.1 1019.1 0.0
16/07:30am 18.3 20.0 18.1 99 0.1 SSW 6 7 3 4 1018.6 1018.6 0.0
16/07:00am 17.9 19.3 17.7 99 0.1 SSW 7 9 4 5 1018.5 1018.5 0.0
16/06:30am 17.8 18.4 17.6 99 0.1 SSW 11 13 6 7 1018.3 1018.3 0.0
16/06:00am 17.6 18.4 17.4 99 0.1 SW 9 13 5 7 1017.9 1017.9 0.0
16/05:30am 17.5 18.3 17.3 99 0.1 WSW 9 11 5 6 1017.6 1017.6 0.0
16/05:00am 17.4 18.5 17.2 99 0.1 SSW 7 9 4 5 1017.1 1017.1 0.0
16/04:30am 17.5 18.7 17.3 99 0.1 S 7 11 4 6 1017.1 1017.1 0.0
16/04:00am 17.3 19.4 17.1 99 0.1 SSW 2 7 1 4 1017.3 1017.3 0.0
16/03:30am 17.3 18.0 17.1 99 0.1 SSW 9 13 5 7 1017.5 1017.5 0.0
16/03:00am 17.7 19.0 17.5 99 0.1 SSW 7 9 4 5 1017.7 1017.7 0.0
16/02:30am 18.2 19.3 18.0 99 0.1 SSE 9 11 5 6 1017.9 1017.9 0.0
16/02:00am 18.1 19.2 17.9 99 0.1 S 9 11 5 6 1017.9 1017.9 0.0
16/01:30am 18.3 19.4 18.1 99 0.1 SSW 9 11 5 6 1018.1 1018.1 0.0
16/01:00am 17.9 18.5 17.7 99 0.1 SSW 11 13 6 7 1017.9 1017.9 0.0
16/12:30am 18.1 19.2 17.9 99 0.1 SW 9 11 5 6 1017.9 1017.9 0.0
16/12:00am 18.0 19.4 17.8 99 0.1 WSW 7 9 4 5 1018.1 1018.1 0.0
 
Date/Time
EST
Temp
°C
App
Temp
°C
Dew
Point
°C
Rel
Hum
%
Delta-T
°C
Wind Press
QNH
hPa
Press
MSL
hPa
Rain since
9am
mm
Dir  Spd
km/h
Gust
km/h
Spd
kts
Gust
kts
15/11:30pm 18.1 19.5 17.9 99 0.1 SW 7 9 4 5 1018.3 1018.3 0.0
15/11:00pm 18.8 20.2 18.6 99 0.1 SW 9 13 5 7 1018.5 1018.5 0.0
15/10:30pm 18.5 19.7 18.3 99 0.1 WSW 9 11 5 6 1018.5 1018.5 0.0
15/10:00pm 18.5 20.1 18.2 98 0.2 SW 7 9 4 5 1018.5 1018.5 0.0
15/09:30pm 18.7 20.3 18.2 97 0.3 SW 7 9 4 5 1018.4 1018.4 0.0
15/09:00pm 19.0 20.7 18.5 97 0.3 SW 7 9 4 5 1018.4 1018.4 0.0
15/08:30pm 19.3 20.8 18.8 97 0.3 SW 9 11 5 6 1018.7 1018.7 0.0
15/08:00pm 19.5 21.3 18.8 96 0.4 SSW 7 9 4 5 1018.5 1018.5 0.0
15/07:30pm 19.5 20.4 18.5 94 0.6 S 11 13 6 7 1018.2 1018.2 0.0
15/07:00pm 20.2 21.5 19.2 94 0.6 SE 11 13 6 7 1018.0 1018.0 0.0
15/06:30pm 20.2 22.1 19.0 93 0.8 ESE 7 9 4 5 1017.7 1017.7 0.0
15/06:00pm 20.5 22.4 19.0 91 0.9 E 7 9 4 5 1017.4 1017.4 0.0
15/05:30pm 20.8 22.6 19.5 92 0.8 E 9 13 5 7 1017.1 1017.1 0.0
15/05:00pm 21.0 22.5 19.7 92 0.8 ESE 11 13 6 7 1016.9 1016.9 0.0
15/04:30pm 21.6 22.5 20.1 91 1.0 SE 15 19 8 10 1016.8 1016.8 0.0
15/04:00pm 21.4 21.8 19.9 91 1.0 ESE 17 20 9 11 1016.7 1016.7 0.0
15/03:30pm 22.0 22.1 19.9 88 1.3 ESE 19 20 10 11 1016.5 1016.5 0.0
15/03:00pm 22.0 23.0 20.3 90 1.1 ESE 15 19 8 10 1016.5 1016.5 0.0
15/02:30pm 21.8 23.0 19.9 89 1.2 E 13 15 7 8 1016.6 1016.6 0.0
15/02:00pm 21.9 22.9 20.2 90 1.1 E 15 17 8 9 1016.6 1016.6 0.0
15/01:30pm 22.3 23.2 20.0 87 1.5 E 15 19 8 10 1016.8 1016.8 0.0
15/01:00pm 23.4 24.5 20.5 84 1.9 ESE 15 17 8 9 1017.0 1017.0 0.0
15/12:30pm 23.1 24.4 20.1 83 1.9 E 13 15 7 8 1017.4 1017.4 0.0
15/12:00pm 23.2 24.8 20.0 82 2.1 ESE 11 13 6 7 1017.9 1017.9 0.0
15/11:30am 23.3 24.6 20.1 82 2.1 SE 13 15 7 8 1018.3 1018.3 0.0

Latest Capital City Observations: Canberra | Sydney | Melbourne | Brisbane | Adelaide | Perth | Hobart | Darwin

Other formats

Comma delimited format used in spreadsheet applications
http://www.bom.gov.au/fwo/IDQ60901/IDQ60901.94580.axf

JavaScript Object Notation format (JSON) in row-major order
http://www.bom.gov.au/fwo/IDQ60901/IDQ60901.94580.json

Data quality

Most of these data are generated automatically and are frequently updated. Quality checks on data are not normally performed. It is possible for incorrect values to appear. Refer to information at About Latest Weather Observations and please check the disclaimer before using these data.